createdAt,value
2023-03-20T00:03:06.919Z,87.20
2023-03-20T00:06:52.356Z,87.87
2023-03-20T00:10:37.725Z,88.13
2023-03-20T00:14:22.487Z,88.30
2023-03-20T00:18:13.279Z,87.40
2023-03-20T00:21:58.982Z,87.84
2023-03-20T00:25:43.229Z,88.08
2023-03-20T00:29:27.621Z,87.53
2023-03-20T00:33:11.844Z,87.64
2023-03-20T00:36:55.000Z,87.99
2023-03-20T00:40:37.723Z,87.03
2023-03-20T00:44:23.339Z,86.53
2023-03-20T00:48:07.799Z,85.77
2023-03-20T00:51:52.323Z,86.49
2023-03-20T00:55:35.326Z,87.40
2023-03-20T00:59:20.183Z,86.37
2023-03-20T01:03:04.033Z,86.69
2023-03-20T01:06:47.315Z,87.04
2023-03-20T01:10:33.524Z,86.47
2023-03-20T01:14:17.956Z,86.36
2023-03-20T01:18:00.859Z,86.64
2023-03-20T01:21:44.035Z,86.15
2023-03-20T01:25:27.112Z,86.58
2023-03-20T01:29:19.023Z,86.67
2023-03-20T01:33:03.014Z,86.44
2023-03-20T01:36:50.370Z,86.54
2023-03-20T01:40:34.812Z,86.33
2023-03-20T01:44:23.212Z,86.20
2023-03-20T01:48:14.560Z,86.32
2023-03-20T01:51:58.273Z,85.86
2023-03-20T01:55:42.651Z,85.14
2023-03-20T01:59:28.503Z,85.27
2023-03-20T02:03:11.341Z,85.21
2023-03-20T02:06:54.104Z,85.90
2023-03-20T02:10:36.934Z,85.99
2023-03-20T02:14:19.825Z,86.04
2023-03-20T02:18:04.104Z,85.51
2023-03-20T02:22:26.390Z,85.32
2023-03-20T02:26:23.662Z,84.88
2023-03-20T02:30:51.352Z,84.76
2023-03-20T02:34:52.849Z,84.78
2023-03-20T02:39:01.460Z,84.44
2023-03-20T02:42:46.670Z,84.35
2023-03-20T02:46:35.409Z,84.68
2023-03-20T02:50:20.992Z,84.65
2023-03-20T02:54:09.433Z,84.41
2023-03-20T02:57:58.588Z,84.90
2023-03-20T03:01:44.007Z,84.45
2023-03-20T03:05:31.046Z,84.54
2023-03-20T03:09:18.631Z,85.10
2023-03-20T03:13:02.212Z,84.75
2023-03-20T03:16:46.053Z,84.69
2023-03-20T03:20:32.372Z,85.51
2023-03-20T03:24:40.265Z,85.46
2023-03-20T03:28:28.797Z,85.25
2023-03-20T03:32:24.467Z,85.86
2023-03-20T03:36:12.205Z,85.89
2023-03-20T03:40:03.266Z,86.20
2023-03-20T03:43:49.724Z,87.45
2023-03-20T03:47:34.677Z,87.36
2023-03-20T03:51:19.059Z,88.09
2023-03-20T03:55:04.975Z,87.54
2023-03-20T03:58:49.826Z,87.60
2023-03-20T04:02:32.537Z,88.55
2023-03-20T04:06:16.874Z,89.10
2023-03-20T04:09:59.639Z,88.54
2023-03-20T04:13:43.788Z,89.15
2023-03-20T04:17:26.449Z,89.00
2023-03-20T04:21:09.524Z,89.78
2023-03-20T04:24:52.658Z,89.91
2023-03-20T04:28:35.393Z,89.87
2023-03-20T04:32:19.505Z,89.36
2023-03-20T04:36:02.279Z,88.15
2023-03-20T04:39:45.012Z,86.42
2023-03-20T04:43:27.691Z,85.85
2023-03-20T04:47:10.365Z,85.15
2023-03-20T04:50:54.411Z,85.16
2023-03-20T04:54:37.117Z,85.48
2023-03-20T04:58:19.793Z,85.42
2023-03-20T05:02:02.421Z,84.81
2023-03-20T05:05:45.398Z,84.86
2023-03-20T05:09:29.505Z,84.71
2023-03-20T05:13:12.443Z,85.03
2023-03-20T05:16:55.539Z,85.17
2023-03-20T05:20:41.010Z,85.33
2023-03-20T05:24:23.765Z,85.27
2023-03-20T05:28:07.904Z,86.14
2023-03-20T05:31:50.671Z,85.31
2023-03-20T05:35:33.586Z,86.30
2023-03-20T05:39:16.568Z,85.09
2023-03-20T05:42:59.202Z,85.31
2023-03-20T05:46:43.277Z,85.28
2023-03-20T05:50:25.929Z,84.90
2023-03-20T05:54:08.604Z,85.28
2023-03-20T05:57:51.261Z,86.12
2023-03-20T06:01:33.960Z,86.62
2023-03-20T06:05:18.157Z,86.55
2023-03-20T06:09:00.876Z,86.67
2023-03-20T06:12:43.630Z,86.46
2023-03-20T06:16:27.328Z,86.77
2023-03-20T06:20:11.384Z,86.84
2023-03-20T06:23:56.676Z,86.04
2023-03-20T06:27:39.445Z,85.13
2023-03-20T06:31:22.248Z,84.67
2023-03-20T06:35:06.056Z,85.10
2023-03-20T06:38:48.738Z,85.12
2023-03-20T06:42:32.853Z,86.03
2023-03-20T06:46:15.668Z,86.41
2023-03-20T06:49:58.314Z,85.82
2023-03-20T06:53:41.649Z,86.15
2023-03-20T06:57:24.380Z,85.30
2023-03-20T07:01:12.048Z,85.33
2023-03-20T07:04:54.794Z,85.13
2023-03-20T07:08:37.542Z,84.15
2023-03-20T07:12:20.820Z,83.27
2023-03-20T07:16:05.232Z,82.31
2023-03-20T07:19:49.476Z,81.21
2023-03-20T07:23:34.337Z,81.21
2023-03-20T07:27:17.890Z,82.19
2023-03-20T07:31:00.835Z,81.44
2023-03-20T07:34:43.715Z,81.07
2023-03-20T07:38:27.804Z,82.20
2023-03-20T07:42:10.508Z,82.21
2023-03-20T07:45:53.187Z,81.59
2023-03-20T07:49:36.342Z,82.13
2023-03-20T07:53:19.400Z,81.18
2023-03-20T07:57:05.403Z,80.05
2023-03-20T08:00:48.124Z,79.58
2023-03-20T08:04:30.796Z,79.26
2023-03-20T08:08:13.778Z,79.07
2023-03-20T08:11:56.630Z,80.23
2023-03-20T08:15:40.856Z,78.84
2023-03-20T08:19:24.209Z,78.77
2023-03-20T08:23:08.008Z,77.10
2023-03-20T08:26:50.687Z,76.59
2023-03-20T08:30:33.408Z,76.37
2023-03-20T08:34:17.512Z,75.97
2023-03-20T08:38:00.350Z,75.58
2023-03-20T08:41:45.850Z,74.67
2023-03-20T08:45:30.744Z,75.47
2023-03-20T08:49:13.593Z,75.14
2023-03-20T08:52:57.625Z,81.64
2023-03-20T08:56:40.428Z,69.85
2023-03-20T09:00:24.205Z,69.27
2023-03-20T09:04:06.923Z,71.07
2023-03-20T09:07:49.620Z,71.37
2023-03-20T09:11:34.291Z,71.04
2023-03-20T09:15:17.092Z,70.61
2023-03-20T09:18:59.887Z,70.37
2023-03-20T09:22:43.822Z,70.14
2023-03-20T09:26:29.129Z,70.40
2023-03-20T09:30:14.828Z,69.97
2023-03-20T09:33:57.446Z,69.93
2023-03-20T09:37:40.193Z,68.77
2023-03-20T09:41:26.130Z,68.57
2023-03-20T09:45:15.672Z,68.29
2023-03-20T09:49:04.127Z,68.39
2023-03-20T09:52:53.173Z,67.72
2023-03-20T09:56:36.123Z,67.40
2023-03-20T10:00:22.331Z,66.96
2023-03-20T10:04:09.252Z,67.61
2023-03-20T10:07:53.563Z,67.25
2023-03-20T10:11:51.804Z,65.39
2023-03-20T10:15:44.762Z,65.14
2023-03-20T10:19:30.064Z,62.73
2023-03-20T10:23:18.054Z,63.05
2023-03-20T10:27:07.824Z,63.38
2023-03-20T10:30:58.559Z,63.57
2023-03-20T10:34:51.383Z,60.02
2023-03-20T10:38:37.950Z,60.56
2023-03-20T10:42:22.848Z,61.15
2023-03-20T10:46:11.720Z,61.06
2023-03-20T10:49:56.888Z,61.99
2023-03-20T10:53:46.511Z,61.25
2023-03-20T10:57:32.008Z,60.89
2023-03-20T11:01:16.236Z,58.97
2023-03-20T11:05:01.565Z,60.21
2023-03-20T11:08:48.830Z,61.07
2023-03-20T11:12:34.442Z,60.27
2023-03-20T11:16:24.227Z,59.56
2023-03-20T11:20:08.346Z,60.22
2023-03-20T11:24:00.833Z,59.36
2023-03-20T11:27:43.773Z,58.88
2023-03-20T11:31:32.449Z,59.01
2023-03-20T11:35:24.941Z,59.66
2023-03-20T11:39:11.724Z,59.42
2023-03-20T11:42:55.671Z,59.79
2023-03-20T11:46:39.723Z,59.22
2023-03-20T11:50:32.800Z,58.31
2023-03-20T11:54:17.627Z,58.87
2023-03-20T11:58:01.357Z,59.44
2023-03-20T12:01:47.251Z,59.65
2023-03-20T12:05:32.880Z,57.19
2023-03-20T12:09:26.965Z,57.52
2023-03-20T12:13:14.608Z,56.76
2023-03-20T12:17:07.441Z,57.76
2023-03-20T12:20:58.576Z,58.14
2023-03-20T12:24:45.258Z,58.18
2023-03-20T12:28:33.465Z,58.77
2023-03-20T12:32:21.720Z,57.66
2023-03-20T12:36:06.269Z,56.87
2023-03-20T12:39:51.015Z,57.22
2023-03-20T12:43:41.341Z,58.59
2023-03-20T12:47:42.150Z,59.70
2023-03-20T12:51:43.957Z,60.33
2023-03-20T12:55:34.955Z,60.42
2023-03-20T12:59:28.779Z,60.28
2023-03-20T13:03:46.850Z,60.20
2023-03-20T13:07:42.664Z,60.29
2023-03-20T13:11:30.764Z,61.23
2023-03-20T13:15:23.311Z,59.89
2023-03-20T13:19:12.741Z,58.93
2023-03-20T13:23:01.006Z,59.70
2023-03-20T13:26:49.157Z,60.70
2023-03-20T13:30:35.954Z,59.87
2023-03-20T13:34:33.667Z,58.07
2023-03-20T13:38:19.983Z,57.79
2023-03-20T13:42:03.882Z,57.09
2023-03-20T13:45:47.544Z,56.04
2023-03-20T13:49:36.320Z,55.71
2023-03-20T13:53:28.412Z,53.48
2023-03-20T13:57:17.774Z,53.26
2023-03-20T14:01:03.463Z,53.09
2023-03-20T14:04:48.334Z,53.09
2023-03-20T14:08:35.482Z,51.68
2023-03-20T14:12:19.958Z,50.95
2023-03-20T14:16:04.302Z,50.71
2023-03-20T14:19:49.010Z,51.02
2023-03-20T14:23:36.880Z,52.04
2023-03-20T14:27:36.767Z,51.23
2023-03-20T14:31:28.014Z,51.69
2023-03-20T14:35:24.964Z,51.38
2023-03-20T14:39:14.874Z,50.75
2023-03-20T14:43:00.445Z,50.34
2023-03-20T14:46:49.449Z,50.39
2023-03-20T14:50:36.413Z,50.49
2023-03-20T14:54:28.155Z,50.36
2023-03-20T14:58:34.907Z,51.30
2023-03-20T15:02:26.819Z,52.04
2023-03-20T15:06:11.704Z,51.74
2023-03-20T15:09:56.596Z,51.69
2023-03-20T15:13:44.056Z,52.14
2023-03-20T15:17:28.637Z,52.46
2023-03-20T15:21:17.222Z,53.64
2023-03-20T15:24:59.876Z,53.27
2023-03-20T15:28:44.339Z,52.90
2023-03-20T15:32:27.202Z,53.31
2023-03-20T15:36:11.600Z,53.43
2023-03-20T15:39:56.882Z,53.88
2023-03-20T15:43:42.487Z,53.75
2023-03-20T15:47:26.372Z,54.00
2023-03-20T15:51:11.380Z,54.39
2023-03-20T15:54:55.633Z,54.11
2023-03-20T15:58:39.241Z,54.05
2023-03-20T16:02:21.961Z,53.80
2023-03-20T16:06:06.327Z,53.77
2023-03-20T16:09:50.861Z,54.24
2023-03-20T16:13:39.013Z,54.61
2023-03-20T16:17:23.841Z,55.04
2023-03-20T16:21:08.404Z,55.33
2023-03-20T16:24:52.898Z,54.94
2023-03-20T16:28:38.652Z,55.15
2023-03-20T16:32:27.012Z,55.68
2023-03-20T16:36:18.780Z,55.46
2023-03-20T16:40:20.053Z,55.19
2023-03-20T16:44:09.228Z,55.10
2023-03-20T16:47:52.163Z,55.22
2023-03-20T16:51:34.911Z,55.62
2023-03-20T16:55:22.886Z,55.91
2023-03-20T16:59:09.508Z,56.25
2023-03-20T17:02:53.850Z,56.74
2023-03-20T17:06:39.218Z,58.49
2023-03-20T17:10:26.997Z,57.63
2023-03-20T17:14:11.245Z,58.07
2023-03-20T17:17:54.032Z,57.90
2023-03-20T17:21:36.779Z,58.31
2023-03-20T17:25:20.167Z,58.55
2023-03-20T17:29:02.951Z,58.83
2023-03-20T17:32:47.202Z,59.13
2023-03-20T17:36:32.129Z,59.18
2023-03-20T17:40:19.180Z,59.63
2023-03-20T17:44:01.967Z,60.05
2023-03-20T17:47:45.413Z,60.30
2023-03-20T17:51:29.688Z,60.84
2023-03-20T17:55:12.513Z,61.13
2023-03-20T17:58:55.231Z,61.41
2023-03-20T18:02:38.011Z,61.77
2023-03-20T18:06:24.550Z,62.22
2023-03-20T18:10:17.327Z,62.56
2023-03-20T18:14:01.869Z,62.88
2023-03-20T18:17:44.541Z,63.36
2023-03-20T18:21:27.227Z,63.53
2023-03-20T18:25:11.294Z,63.76
2023-03-20T18:28:55.568Z,63.74
2023-03-20T18:32:38.306Z,64.00
2023-03-20T18:36:22.601Z,63.72
2023-03-20T18:40:08.844Z,63.85
2023-03-20T18:43:55.554Z,63.69
2023-03-20T18:47:38.294Z,64.10
2023-03-20T18:51:21.680Z,64.25
2023-03-20T18:55:04.649Z,64.39
2023-03-20T18:58:48.569Z,64.22
2023-03-20T19:02:32.876Z,64.68
2023-03-20T19:06:17.695Z,64.45
2023-03-20T19:10:00.423Z,64.84
2023-03-20T19:13:45.461Z,64.83
2023-03-20T19:17:28.124Z,65.03
2023-03-20T19:21:12.132Z,67.26
2023-03-20T19:24:54.787Z,67.43
2023-03-20T19:28:41.163Z,67.40
2023-03-20T19:32:24.255Z,67.43
2023-03-20T19:36:07.791Z,66.74
2023-03-20T19:39:51.993Z,66.36
2023-03-20T19:43:42.585Z,66.21
2023-03-20T19:47:34.429Z,65.84
2023-03-20T19:51:18.513Z,66.36
2023-03-20T19:55:03.795Z,66.07
2023-03-20T19:58:46.707Z,66.31
2023-03-20T20:02:29.633Z,65.86
2023-03-20T20:06:12.457Z,66.07
2023-03-20T20:09:55.308Z,66.27
2023-03-20T20:13:53.454Z,66.76
2023-03-20T20:17:42.450Z,67.00
2023-03-20T20:25:28.054Z,66.60
2023-03-20T20:29:12.069Z,66.45
2023-03-20T20:33:02.846Z,66.43
2023-03-20T20:40:49.921Z,66.17
2023-03-20T20:44:34.034Z,66.29
2023-03-20T20:48:17.388Z,66.67
2023-03-20T20:52:00.110Z,66.62
2023-03-20T20:55:42.768Z,66.83
2023-03-20T20:59:25.618Z,66.77
2023-03-20T21:03:09.713Z,66.83
2023-03-20T21:07:10.705Z,67.07
2023-03-20T21:10:54.013Z,67.29
2023-03-20T21:14:37.151Z,67.30
2023-03-20T21:18:21.175Z,67.39
2023-03-20T21:22:07.384Z,67.33
2023-03-20T21:25:50.298Z,67.32
2023-03-20T21:29:33.118Z,67.42
2023-03-20T21:33:16.029Z,67.38
2023-03-20T21:37:56.114Z,68.15
2023-03-20T21:41:10.119Z,68.56
2023-03-20T21:45:54.298Z,70.86
2023-03-20T21:49:46.554Z,70.63
2023-03-20T21:53:45.981Z,70.75
2023-03-20T21:57:42.767Z,68.84
2023-03-20T22:01:53.835Z,67.69
2023-03-20T22:05:48.604Z,67.87
2023-03-20T22:14:12.645Z,67.90
2023-03-20T22:22:12.060Z,68.51
2023-03-20T22:26:00.718Z,68.42
2023-03-20T22:30:07.134Z,68.60
2023-03-20T22:45:52.064Z,68.98
2023-03-20T22:49:42.497Z,68.97
2023-03-20T22:53:25.381Z,69.28
2023-03-20T22:57:09.449Z,69.43
2023-03-20T23:00:54.922Z,69.35
2023-03-20T23:04:37.704Z,69.32
2023-03-20T23:08:20.955Z,69.44
2023-03-20T23:12:03.692Z,69.75
2023-03-20T23:15:50.597Z,69.71
2023-03-20T23:19:44.801Z,69.69
2023-03-20T23:23:29.974Z,69.95
2023-03-20T23:27:12.709Z,69.67
2023-03-20T23:31:09.395Z,70.05
2023-03-20T23:34:52.636Z,69.76
2023-03-20T23:38:35.863Z,69.73
2023-03-20T23:42:29.949Z,69.92
2023-03-20T23:46:15.078Z,69.60
2023-03-20T23:49:57.793Z,70.03
2023-03-20T23:53:40.653Z,70.26
2023-03-20T23:57:23.300Z,70.41
